Historyczne dane pomiarowe

Dodano dane terminowe – wersja testowa.

Dane z okresu 1951-2019

Wersja bazy: 1.34 [2019-03-16, lista zmian], aktualizacja planowana na 2019-04-15

Dane meteo z obszaru Polski uzyskane na podstawie danych udostępnionych przez Instytut Meteorologii i Gospodarki Wodnej – Państwowy Instytut Badawczy.

 

Wybierz Datę:    

       

TemperaturaWilgotnośćWiatrCiśnienieOpadyŚniegCzas trwania zjawisk
 Stacja t tx tn tng RH VA  wxwx mslp ppp RRR   cm mm wxwxwxwxwxwxwx
1951-10-11 5.5 13.6 -2.5 -6.4 66.5- 2.3 1.0---- 0.0------------
1951-10-12 5.3 15.1 -3.1 -7.1 73.5- 0.0 3.0---- 0.0------------
1951-10-13 4.6 14.1 -1.8 -6.8 77.5- 0.0 3.0---- 0.0------------
1951-10-14 6.5 16.4 -0.5 -5.5 69.8- 0.0 2.7---- 0.0------------
1951-10-15 5.4 15.6 -1.6 -5.4 73.0- 0.0 2.3---- 0.0------------
1951-10-16 4.0 13.1 -3.1 -8.4 79.0- 0.0 2.3---- 0.0------------
1951-10-17 8.4 18.8 -2.6 -7.4 57.3- 0.0 1.7---- 0.0------------
1951-10-18 4.8 16.0 -2.1 -5.5 75.5- 4.3 0.3---- 0.0------------
1951-10-19 7.6 16.6 -2.4 -6.9 65.0- 0.0 2.3---- 0.0------------
1951-10-20 6.2 16.2 -1.2 -5.9 76.8- 1.3 0.7---- 0.0------------
1951-10-21 9.3 20.0 -0.5 -3.2 76.3- 5.0 0.7---- 0.0------------
1951-10-22 9.1 18.3 2.5 -0.8 84.8- 1.0 2.3---- 0.0------------
1951-10-23 9.2 11.9 5.5 1.6 85.3- 8.0 2.0---- 0.0------------
1951-10-24 9.2 10.1 7.6 7.5 93.3- 8.0 3.0---- 0.0------------
1951-10-25 8.5 11.4 6.5 8.1 87.0- 8.0 1.0---- 0.0------------
1951-10-26 4.8 11.7 0.6 -2.6 78.0- 3.3 1.0---- 0.0------------
1951-10-27 3.2 10.0 -3.6 -6.5 81.0- 4.3 3.0---- 0.0------------
1951-10-28 2.8 8.2 -1.9 -7.0 88.3- 0.0 2.7---- 0.0------------
1951-10-29 5.9 13.8 -3.1 -7.9 67.8- 1.0 3.7---- 0.0------------
1951-10-30 8.4 14.6 -0.1 -5.9 66.3- 0.0 1.0---- 0.0------------
1951-10-31 9.4 12.9 6.9 4.6 68.0- 2.3 3.7---- 0.0------------
1951-11-01 9.8 11.1 7.5 5.6 79.8- 7.7 1.3---- 0.3------------
1951-11-02 8.0 8.7 7.3 6.6 93.8- 8.0 2.0---- 42.2------------
1951-11-03 8.1 9.8 6.5 6.1 83.5- 7.7 3.0---- 0.8------------
1951-11-04 5.2 9.0 1.7 4.1 86.8- 5.3 1.3---- 0.0------------
1951-11-05 3.1 7.1 -1.9 -2.6 94.5- 5.0 2.3---- 0.2------------
1951-11-06 5.1 6.4 2.3 -1.3 88.5- 8.0 6.7---- 0.0------------
1951-11-07 5.1 8.9 2.5 1.1 86.8- 5.0 4.0---- 0.0------------
1951-11-08 11.6 13.9 0.3 -0.4 69.5- 4.3 5.0---- 0.0------------
1951-11-09 12.4 14.7 10.2 7.1 79.3- 7.7 3.3---- 0.0------------
56.2 ms

 

Źródłem pochodzenia danych jest Instytut Meteorologii i Gospodarki Wodnej – Państwowy Instytut Badawczy. Dane Instytutu Meteorologii i Gospodarki Wodnej – Państwowego Instytutu Badawczego zostały przetworzone.

Dane źródłowe można odnaleźć na stronie https://dane.imgw.pl